Time;durP1;ratioP1;P1;durP2;ratioP2;P2;SDS_P1;SDS_P2;PMS_P1;PMS_P2;Temp;Humidity;BMP_temperature;BMP_pressure;BME280_temperature;BME280_humidity;BME280_pressure;Samples;Min_cycle;Max_cycle;Signal;HPM_P1;HPM_P2
2021/09/12 00:00:25;;;;;;;17.98;14.65;;;;;;;;;;5034221;28;20465;-73
2021/09/12 00:02:51;;;;;;;18.45;14.50;;;;;;;;;;5035319;28;20108;-73
2021/09/12 00:05:17;;;;;;;17.13;13.98;;;;;;;;;;5035944;28;20027;-73
2021/09/12 00:07:43;;;;;;;19.10;16.02;;;;;;;;;;5034289;28;20033;-73
2021/09/12 00:10:09;;;;;;;17.63;15.70;;;;;;;;;;5035451;28;20032;-73
2021/09/12 00:12:37;;;;;;;20.08;16.40;;;;;;;;;;5032946;28;20038;-73
2021/09/12 00:15:03;;;;;;;;;;;;;;;;;;5034405;28;20104;-73
2021/09/12 00:17:29;;;;;;;17.35;13.93;;;;;;;;;;5037196;28;19940;-73
2021/09/12 00:19:55;;;;;;;16.15;12.52;;;;;;;;;;5033800;28;20021;-73
2021/09/12 00:22:21;;;;;;;15.18;13.32;;;;;;;;;;5035567;28;20025;-73
2021/09/12 00:24:47;;;;;;;18.13;14.40;;;;;;;;;;5033525;28;20021;-73
2021/09/12 00:27:13;;;;;;;20.10;14.82;;;;;;;;;;5034598;28;20083;-72
2021/09/12 00:29:39;;;;;;;18.83;15.38;;;;;;;;;;5035087;28;20033;-73
2021/09/12 00:32:05;;;;;;;17.40;14.95;;;;;;;;;;5035509;28;20029;-73
2021/09/12 00:34:31;;;;;;;18.45;14.90;;;;;;;;;;5033055;28;20057;-73
2021/09/12 00:36:57;;;;;;;15.23;13.63;;;;;;;;;;5034173;28;20444;-73
2021/09/12 00:39:23;;;;;;;15.98;12.63;;;;;;;;;;5034392;28;20075;-73
2021/09/12 00:41:49;;;;;;;15.90;12.45;;;;;;;;;;5035138;28;20056;-73
2021/09/12 00:44:16;;;;;;;17.25;13.02;;;;;;;;;;5034972;28;20461;-73
2021/09/12 00:46:45;;;;;;;15.13;13.52;;;;;;;;;;5032771;28;20132;-73
2021/09/12 00:49:11;;;;;;;19.23;15.13;;;;;;;;;;5035063;28;20055;-74
2021/09/12 00:51:37;;;;;;;21.10;15.93;;;;;;;;;;5032553;28;20036;-73
2021/09/12 00:54:04;;;;;;;20.02;16.65;;;;;;;;;;5032854;28;20087;-73
2021/09/12 00:56:31;;;;;;;20.27;17.70;;;;;;;;;;5034638;28;20108;-73
2021/09/12 00:59:00;;;;;;;20.98;16.80;;;;;;;;;;5032947;28;20033;-73
2021/09/12 01:01:26;;;;;;;21.73;18.80;;;;;;;;;;5034721;28;20129;-73
2021/09/12 01:03:55;;;;;;;21.13;17.92;;;;;;;;;;5032616;28;20543;-73
2021/09/12 01:06:21;;;;;;;18.67;16.67;;;;;;;;;;5034132;28;20021;-73
2021/09/12 01:08:47;;;;;;;20.25;16.00;;;;;;;;;;5034293;28;20037;-73
2021/09/12 01:11:13;;;;;;;19.52;15.80;;;;;;;;;;5034341;28;20393;-73
2021/09/12 01:13:40;;;;;;;19.65;16.52;;;;;;;;;;5034145;28;20040;-73
2021/09/12 01:16:11;;;;;;;21.25;17.60;;;;;;;;;;5034281;28;20025;-73
2021/09/12 01:18:37;;;;;;;20.48;16.92;;;;;;;;;;5032019;28;20029;-73
2021/09/12 01:21:03;;;;;;;21.58;16.70;;;;;;;;;;5032539;28;20037;-73
2021/09/12 01:23:29;;;;;;;19.73;15.85;;;;;;;;;;5033813;28;20425;-73
2021/09/12 01:25:55;;;;;;;16.85;14.52;;;;;;;;;;5034302;28;20021;-73
2021/09/12 01:28:21;;;;;;;16.25;14.55;;;;;;;;;;5033513;28;20378;-73
2021/09/12 01:30:47;;;;;;;18.83;15.43;;;;;;;;;;5031900;28;20029;-73
2021/09/12 01:33:14;;;;;;;17.70;15.10;;;;;;;;;;5029593;28;20058;-73
2021/09/12 01:35:40;;;;;;;20.08;16.42;;;;;;;;;;5033840;28;20397;-73
2021/09/12 01:38:06;;;;;;;18.77;16.27;;;;;;;;;;5032351;28;20071;-73
2021/09/12 01:40:32;;;;;;;20.02;16.38;;;;;;;;;;5034150;28;20074;-73
2021/09/12 01:42:59;;;;;;;22.88;17.75;;;;;;;;;;5032943;28;20044;-73
2021/09/12 01:45:25;;;;;;;20.50;17.65;;;;;;;;;;5032693;28;20036;-73
2021/09/12 01:47:50;;;;;;;22.90;18.20;;;;;;;;;;5034021;28;20037;-73
2021/09/12 01:50:17;;;;;;;22.83;18.10;;;;;;;;;;5033712;28;20037;-73
2021/09/12 01:52:43;;;;;;;21.52;17.67;;;;;;;;;;5033815;28;20401;-74
2021/09/12 01:55:10;;;;;;;21.23;17.08;;;;;;;;;;5034173;28;20044;-73
2021/09/12 01:57:36;;;;;;;23.25;18.15;;;;;;;;;;5031236;28;20021;-73
2021/09/12 02:00:03;;;;;;;24.20;18.60;;;;;;;;;;5032864;28;20029;-73
2021/09/12 02:02:29;;;;;;;25.45;18.20;;;;;;;;;;5037855;28;20495;-73
2021/09/12 02:04:55;;;;;;;25.05;19.23;;;;;;;;;;5038157;28;20021;-73
2021/09/12 02:07:21;;;;;;;21.95;17.50;;;;;;;;;;5037552;28;20468;-73
2021/09/12 02:09:47;;;;;;;20.50;16.27;;;;;;;;;;5035951;28;20116;-73
2021/09/12 02:12:12;;;;;;;23.17;18.70;;;;;;;;;;5037608;28;20500;-73
2021/09/12 02:14:38;;;;;;;25.75;19.38;;;;;;;;;;5037594;28;20046;-73
2021/09/12 02:17:04;;;;;;;25.20;18.67;;;;;;;;;;5036072;28;20089;-72
2021/09/12 02:19:30;;;;;;;20.73;17.15;;;;;;;;;;5037875;28;20469;-73
2021/09/12 02:21:56;;;;;;;25.05;17.85;;;;;;;;;;5036481;28;20053;-73
2021/09/12 02:24:22;;;;;;;18.58;15.25;;;;;;;;;;5036527;28;20127;-73
2021/09/12 02:26:48;;;;;;;19.42;15.80;;;;;;;;;;5037552;28;20037;-72
2021/09/12 02:29:14;;;;;;;18.90;15.80;;;;;;;;;;5037046;28;20124;-72
2021/09/12 02:31:40;;;;;;;19.42;15.88;;;;;;;;;;5037501;28;20025;-72
2021/09/12 02:34:06;;;;;;;21.40;16.80;;;;;;;;;;5037186;28;20474;-72
2021/09/12 02:36:32;;;;;;;17.92;15.45;;;;;;;;;;5035333;28;20071;-72
2021/09/12 02:38:58;;;;;;;19.75;15.82;;;;;;;;;;5037436;28;20030;-73
2021/09/12 02:41:24;;;;;;;18.95;15.02;;;;;;;;;;5036929;28;20388;-72
2021/09/12 02:43:50;;;;;;;17.08;14.25;;;;;;;;;;5035940;28;20025;-72
2021/09/12 02:46:16;;;;;;;21.50;16.25;;;;;;;;;;5036991;28;20033;-73
2021/09/12 02:48:42;;;;;;;20.23;16.67;;;;;;;;;;5035131;28;20120;-73
2021/09/12 02:51:08;;;;;;;19.83;17.05;;;;;;;;;;5036956;28;20026;-73
2021/09/12 02:53:34;;;;;;;25.55;16.88;;;;;;;;;;5036816;28;20508;-73
2021/09/12 02:56:00;;;;;;;19.95;15.90;;;;;;;;;;5035700;28;20488;-73
2021/09/12 02:58:26;;;;;;;17.85;15.95;;;;;;;;;;5037227;28;20030;-73
2021/09/12 03:00:52;;;;;;;19.63;16.80;;;;;;;;;;5034799;28;20439;-72
2021/09/12 03:03:18;;;;;;;19.80;16.08;;;;;;;;;;5036936;28;20033;-73
2021/09/12 03:05:44;;;;;;;23.73;17.95;;;;;;;;;;5036678;28;20034;-72
2021/09/12 03:08:10;;;;;;;21.25;16.38;;;;;;;;;;5036495;28;20083;-73
2021/09/12 03:10:36;;;;;;;24.55;18.38;;;;;;;;;;5036585;28;20014;-73
2021/09/12 03:13:02;;;;;;;25.27;19.73;;;;;;;;;;5035011;28;20556;-72
2021/09/12 03:15:28;;;;;;;25.83;19.08;;;;;;;;;;5035381;28;20022;-73
2021/09/12 03:17:54;;;;;;;27.13;19.38;;;;;;;;;;5036636;28;20022;-73
2021/09/12 03:20:20;;;;;;;25.42;19.13;;;;;;;;;;5035637;28;20433;-73
2021/09/12 03:22:46;;;;;;;23.23;17.08;;;;;;;;;;5035197;28;20026;-72
2021/09/12 03:25:12;;;;;;;18.92;16.08;;;;;;;;;;5036670;28;20032;-73
2021/09/12 03:27:38;;;;;;;22.20;17.25;;;;;;;;;;5033922;28;20045;-73
2021/09/12 03:30:05;;;;;;;24.17;16.98;;;;;;;;;;5035981;28;20044;-73
2021/09/12 03:32:31;;;;;;;23.25;15.80;;;;;;;;;;5036568;28;20033;-72
2021/09/12 03:34:57;;;;;;;20.25;17.08;;;;;;;;;;5034762;28;20033;-73
2021/09/12 03:37:23;;;;;;;24.48;17.35;;;;;;;;;;5036330;28;20075;-72
2021/09/12 03:39:49;;;;;;;24.30;18.50;;;;;;;;;;5033890;28;20385;-73
2021/09/12 03:42:15;;;;;;;24.92;18.48;;;;;;;;;;5036626;28;20044;-73
2021/09/12 03:44:41;;;;;;;25.80;17.90;;;;;;;;;;5035975;28;20022;-73
2021/09/12 03:47:07;;;;;;;29.35;18.23;;;;;;;;;;5035882;28;20033;-73
2021/09/12 03:49:33;;;;;;;24.65;17.75;;;;;;;;;;5035870;28;20520;-62
2021/09/12 03:51:59;;;;;;;20.98;17.08;;;;;;;;;;5035121;28;20040;-61
2021/09/12 03:54:24;;;;;;;22.92;16.83;;;;;;;;;;5033584;28;20496;-62
2021/09/12 03:56:50;;;;;;;22.92;18.10;;;;;;;;;;5035625;28;20096;-61
2021/09/12 03:59:16;;;;;;;22.15;17.20;;;;;;;;;;5039021;28;20032;-61
2021/09/12 04:01:42;;;;;;;22.73;16.77;;;;;;;;;;5036457;28;20170;-61
2021/09/12 04:04:08;;;;;;;24.27;19.05;;;;;;;;;;5035673;28;20036;-62
2021/09/12 04:06:34;;;;;;;22.10;17.77;;;;;;;;;;5033092;28;20041;-61
2021/09/12 04:09:00;;;;;;;22.27;17.77;;;;;;;;;;5035757;28;20041;-61
2021/09/12 04:11:26;;;;;;;19.88;16.10;;;;;;;;;;5035799;28;20025;-62
2021/09/12 04:13:52;;;;;;;23.35;17.40;;;;;;;;;;5033799;28;20396;-61
2021/09/12 04:16:18;;;;;;;27.55;19.63;;;;;;;;;;5035675;28;20020;-61
2021/09/12 04:18:44;;;;;;;23.85;18.75;;;;;;;;;;5033384;28;20029;-61
2021/09/12 04:21:10;;;;;;;21.75;18.60;;;;;;;;;;5035046;28;20370;-61
2021/09/12 04:23:36;;;;;;;21.50;17.48;;;;;;;;;;5035226;28;20026;-61
2021/09/12 04:26:03;;;;;;;22.48;17.77;;;;;;;;;;5035382;28;20578;-61
2021/09/12 04:28:29;;;;;;;21.73;17.80;;;;;;;;;;5034779;28;20048;-61
2021/09/12 04:30:56;;;;;;;21.45;17.52;;;;;;;;;;5033941;28;20052;-62
2021/09/12 04:33:22;;;;;;;23.48;18.45;;;;;;;;;;5034346;28;20028;-61
2021/09/12 04:35:48;;;;;;;22.80;18.00;;;;;;;;;;5034380;28;20033;-61
2021/09/12 04:38:14;;;;;;;24.70;18.13;;;;;;;;;;5035240;28;20033;-62
2021/09/12 04:40:39;;;;;;;26.20;19.35;;;;;;;;;;5035372;28;20104;-61
2021/09/12 04:43:06;;;;;;;22.63;18.05;;;;;;;;;;5035192;28;20473;-61
2021/09/12 04:45:32;;;;;;;19.67;16.77;;;;;;;;;;5033104;28;20025;-62
2021/09/12 04:47:58;;;;;;;20.95;16.88;;;;;;;;;;5032231;28;20041;-61
2021/09/12 04:50:24;;;;;;;19.50;15.88;;;;;;;;;;5034668;28;20409;-61
2021/09/12 04:52:50;;;;;;;20.02;15.68;;;;;;;;;;5033484;28;20099;-61
2021/09/12 04:55:16;;;;;;;20.63;16.35;;;;;;;;;;5035058;28;20407;-61
2021/09/12 04:57:44;;;;;;;23.02;16.50;;;;;;;;;;5032846;28;20022;-61
2021/09/12 05:00:10;;;;;;;;;;;;;;;;;;5034878;28;20429;-61
2021/09/12 05:02:36;;;;;;;20.63;15.90;;;;;;;;;;5034577;28;19999;-61
2021/09/12 05:05:02;;;;;;;22.27;16.67;;;;;;;;;;5034258;28;20022;-62
2021/09/12 05:07:28;;;;;;;21.58;16.83;;;;;;;;;;5034365;28;20029;-62
2021/09/12 05:09:54;;;;;;;21.20;16.13;;;;;;;;;;5032996;28;20095;-61
2021/09/12 05:12:20;;;;;;;20.83;15.85;;;;;;;;;;5032825;28;20049;-61
2021/09/12 05:14:46;;;;;;;21.00;15.93;;;;;;;;;;5034256;28;20072;-61
2021/09/12 05:17:12;;;;;;;20.08;15.80;;;;;;;;;;5034246;28;20358;-61
2021/09/12 05:19:38;;;;;;;19.20;16.30;;;;;;;;;;5034479;28;20040;-62
2021/09/12 05:22:04;;;;;;;21.92;16.98;;;;;;;;;;5047075;28;20112;-62
2021/09/12 05:24:30;;;;;;;21.83;16.80;;;;;;;;;;5032631;28;20026;-62
2021/09/12 05:26:56;;;;;;;25.38;16.88;;;;;;;;;;5034380;28;20029;-63
2021/09/12 05:29:23;;;;;;;22.42;18.45;;;;;;;;;;5036892;28;20406;-62
2021/09/12 05:31:50;;;;;;;20.83;17.20;;;;;;;;;;5031878;28;20025;-63
2021/09/12 05:34:16;;;;;;;21.75;16.52;;;;;;;;;;5034469;28;20630;-62
2021/09/12 05:36:42;;;;;;;26.65;18.60;;;;;;;;;;5031748;28;20405;-62
2021/09/12 05:39:08;;;;;;;25.75;18.95;;;;;;;;;;5033179;28;20036;-62
2021/09/12 05:41:34;;;;;;;22.05;17.83;;;;;;;;;;5033750;28;20037;-62
2021/09/12 05:44:01;;;;;;;22.00;17.33;;;;;;;;;;5033851;28;20112;-61
2021/09/12 05:46:27;;;;;;;20.77;16.55;;;;;;;;;;5034273;28;20030;-63
2021/09/12 05:48:53;;;;;;;19.48;16.77;;;;;;;;;;5032179;28;20513;-62
2021/09/12 05:51:19;;;;;;;20.50;16.30;;;;;;;;;;5033364;28;20028;-62
2021/09/12 05:53:45;;;;;;;23.35;17.20;;;;;;;;;;5033976;28;20120;-61
2021/09/12 05:56:11;;;;;;;19.85;16.70;;;;;;;;;;5033525;28;20064;-62
2021/09/12 05:58:37;;;;;;;18.75;16.02;;;;;;;;;;5033947;28;20050;-61
2021/09/12 06:01:03;;;;;;;19.63;16.48;;;;;;;;;;5033216;28;20480;-62
2021/09/12 06:03:29;;;;;;;21.10;16.50;;;;;;;;;;5032532;28;20025;-61
2021/09/12 06:05:55;;;;;;;20.15;15.98;;;;;;;;;;5033908;28;20109;-61
2021/09/12 06:08:21;;;;;;;17.35;15.00;;;;;;;;;;5033566;28;20038;-61
2021/09/12 06:10:47;;;;;;;18.85;16.17;;;;;;;;;;5032455;28;20028;-61
2021/09/12 06:13:13;;;;;;;17.83;14.82;;;;;;;;;;5033966;28;20509;-61
2021/09/12 06:15:39;;;;;;;18.67;14.68;;;;;;;;;;5030814;28;20030;-62
2021/09/12 06:18:05;;;;;;;17.95;14.10;;;;;;;;;;5033746;28;20028;-61
2021/09/12 06:20:31;;;;;;;16.25;14.05;;;;;;;;;;5033738;28;20381;-61
2021/09/12 06:22:57;;;;;;;17.30;14.20;;;;;;;;;;5033865;28;20029;-61
2021/09/12 06:25:23;;;;;;;17.05;13.75;;;;;;;;;;5033321;28;20025;-61
2021/09/12 06:27:49;;;;;;;14.38;12.40;;;;;;;;;;5031089;28;20558;-62
2021/09/12 06:30:15;;;;;;;14.27;11.38;;;;;;;;;;5033568;28;20037;-62
2021/09/12 06:32:41;;;;;;;12.55;10.05;;;;;;;;;;5033772;28;20359;-62
2021/09/12 06:35:08;;;;;;;11.27;9.43;;;;;;;;;;5033283;28;20040;-61
2021/09/12 06:37:34;;;;;;;12.02;9.23;;;;;;;;;;5033388;28;20041;-61
2021/09/12 06:40:00;;;;;;;10.80;9.23;;;;;;;;;;5032663;28;20021;-62
2021/09/12 06:42:26;;;;;;;11.38;8.88;;;;;;;;;;5032321;28;20033;-61
2021/09/12 06:44:52;;;;;;;10.50;8.35;;;;;;;;;;5032846;28;20017;-61
2021/09/12 06:47:18;;;;;;;11.68;8.82;;;;;;;;;;5035234;28;20029;-61
2021/09/12 06:49:44;;;;;;;11.30;8.60;;;;;;;;;;5035815;28;20037;-62
2021/09/12 06:52:10;;;;;;;11.40;8.30;;;;;;;;;;5037206;28;20828;-62
2021/09/12 06:54:36;;;;;;;9.23;7.57;;;;;;;;;;5034697;28;20037;-62
2021/09/12 06:57:02;;;;;;;10.18;7.35;;;;;;;;;;5037047;28;20026;-62
2021/09/12 06:59:28;;;;;;;10.57;7.80;;;;;;;;;;5036921;28;20404;-61
2021/09/12 07:01:54;;;;;;;8.23;7.30;;;;;;;;;;5036269;28;20105;-61
2021/09/12 07:04:20;;;;;;;9.13;6.80;;;;;;;;;;5037199;28;20393;-62
2021/09/12 07:06:46;;;;;;;9.63;7.28;;;;;;;;;;5035052;28;20501;-61
2021/09/12 07:09:12;;;;;;;8.65;7.18;;;;;;;;;;5035586;28;20072;-61
2021/09/12 07:11:38;;;;;;;10.85;7.35;;;;;;;;;;5036539;28;20072;-61
2021/09/12 07:14:04;;;;;;;8.10;6.80;;;;;;;;;;5041310;28;20172;-61
2021/09/12 07:16:30;;;;;;;9.48;7.00;;;;;;;;;;5036974;28;20021;-62
2021/09/12 07:18:56;;;;;;;9.70;6.50;;;;;;;;;;5035482;28;20037;-61
2021/09/12 07:21:23;;;;;;;9.02;6.60;;;;;;;;;;5035792;28;20473;-62
2021/09/12 07:23:49;;;;;;;8.25;6.35;;;;;;;;;;5035201;28;20073;-61
2021/09/12 07:26:15;;;;;;;7.35;6.00;;;;;;;;;;5036472;28;20022;-62
2021/09/12 07:28:41;;;;;;;7.93;6.18;;;;;;;;;;5034352;28;20050;-62
2021/09/12 07:31:07;;;;;;;7.55;6.13;;;;;;;;;;5036527;28;20022;-62
2021/09/12 07:33:33;;;;;;;7.68;5.90;;;;;;;;;;5034495;28;20026;-62
2021/09/12 07:35:59;;;;;;;7.78;6.32;;;;;;;;;;5036548;28;20029;-62
2021/09/12 07:38:26;;;;;;;8.13;6.18;;;;;;;;;;5035630;28;20076;-61
2021/09/12 07:40:51;;;;;;;7.55;6.35;;;;;;;;;;5036045;28;20024;-62
2021/09/12 07:43:17;;;;;;;10.82;6.35;;;;;;;;;;5036298;28;20029;-62
2021/09/12 07:45:43;;;;;;;7.35;6.25;;;;;;;;;;5033790;28;20030;-61
2021/09/12 07:48:09;;;;;;;7.55;6.70;;;;;;;;;;5036094;28;20029;-61
2021/09/12 07:50:35;;;;;;;9.18;6.63;;;;;;;;;;5035737;28;20083;-61
2021/09/12 07:53:02;;;;;;;8.00;6.53;;;;;;;;;;5035721;28;20025;-61
2021/09/12 07:55:28;;;;;;;7.63;6.15;;;;;;;;;;5036060;28;20026;-62
2021/09/12 07:57:54;;;;;;;8.93;6.80;;;;;;;;;;5034085;28;20033;-61
2021/09/12 08:00:20;;;;;;;9.65;6.45;;;;;;;;;;5034570;28;20025;-62
2021/09/12 08:02:46;;;;;;;7.50;6.60;;;;;;;;;;5034429;28;20071;-62
2021/09/12 08:05:12;;;;;;;9.27;6.75;;;;;;;;;;5035830;28;20033;-62
2021/09/12 08:07:38;;;;;;;8.70;6.38;;;;;;;;;;5034036;28;20033;-61
2021/09/12 08:10:05;;;;;;;8.60;6.28;;;;;;;;;;5035388;28;20030;-61
2021/09/12 08:12:31;;;;;;;7.90;6.22;;;;;;;;;;5034093;28;20049;-61
2021/09/12 08:14:57;;;;;;;7.40;6.43;;;;;;;;;;5035190;28;20040;-62
2021/09/12 08:17:23;;;;;;;8.15;6.65;;;;;;;;;;5035624;28;20025;-62
2021/09/12 08:19:49;;;;;;;10.18;7.20;;;;;;;;;;5035331;28;20036;-63
2021/09/12 08:22:14;;;;;;;10.13;6.97;;;;;;;;;;5035617;28;20029;-61
2021/09/12 08:24:41;;;;;;;9.27;6.80;;;;;;;;;;5032736;28;20032;-61
2021/09/12 08:27:07;;;;;;;8.30;6.60;;;;;;;;;;5035251;28;20021;-62
2021/09/12 08:29:33;;;;;;;7.80;6.50;;;;;;;;;;5035006;28;20110;-61
2021/09/12 08:31:59;;;;;;;9.85;6.60;;;;;;;;;;5036233;28;20034;-62
2021/09/12 08:34:27;;;;;;;9.32;7.00;;;;;;;;;;5033961;28;20031;-62
2021/09/12 08:36:53;;;;;;;8.52;7.10;;;;;;;;;;5033535;28;20021;-62
2021/09/12 08:39:19;;;;;;;8.25;6.85;;;;;;;;;;5034566;28;20025;-62
2021/09/12 08:41:45;;;;;;;8.38;6.93;;;;;;;;;;5034913;28;20112;-62
2021/09/12 08:44:12;;;;;;;8.45;6.85;;;;;;;;;;5038942;28;20036;-62
2021/09/12 08:46:38;;;;;;;10.15;7.50;;;;;;;;;;5033819;28;20026;-62
2021/09/12 08:49:06;;;;;;;8.30;6.88;;;;;;;;;;5039285;28;20102;-62
2021/09/12 08:51:32;;;;;;;8.02;6.55;;;;;;;;;;5033160;28;20030;-62
2021/09/12 08:53:58;;;;;;;8.43;7.00;;;;;;;;;;5034801;28;20044;-62
2021/09/12 08:56:24;;;;;;;11.10;6.70;;;;;;;;;;5034490;28;20300;-62
2021/09/12 08:58:50;;;;;;;8.27;6.63;;;;;;;;;;5034593;28;20029;-61
2021/09/12 09:01:16;;;;;;;10.07;7.10;;;;;;;;;;5035314;28;20354;-61
2021/09/12 09:03:42;;;;;;;9.40;7.07;;;;;;;;;;5032597;28;20037;-61
2021/09/12 09:06:15;;;;;;;9.68;6.97;;;;;;;;;;5033722;28;20087;-61
2021/09/12 09:08:51;;;;;;;9.57;6.78;;;;;;;;;;5034155;28;20030;-61
2021/09/12 09:11:27;;;;;;;8.88;7.15;;;;;;;;;;5033850;28;20740;-62
2021/09/12 09:13:53;;;;;;;9.15;6.95;;;;;;;;;;5032822;28;20376;-61
2021/09/12 09:16:29;;;;;;;9.55;6.93;;;;;;;;;;5034282;28;20029;-62
2021/09/12 09:19:03;;;;;;;9.55;7.20;;;;;;;;;;5032966;28;20096;-61
2021/09/12 09:21:49;;;;;;;12.52;7.28;;;;;;;;;;5032311;28;20049;-61
2021/09/12 09:24:17;;;;;;;12.27;8.20;;;;;;;;;;5029645;28;20033;-61
2021/09/12 09:26:43;;;;;;;9.65;7.65;;;;;;;;;;5032991;28;20023;-62
2021/09/12 09:29:10;;;;;;;9.75;7.28;;;;;;;;;;5033729;28;20128;-61
2021/09/12 09:31:36;;;;;;;9.45;7.55;;;;;;;;;;5034416;28;20021;-61
2021/09/12 09:34:14;;;;;;;12.02;8.10;;;;;;;;;;5033507;28;20025;-62
2021/09/12 09:36:40;;;;;;;9.63;7.57;;;;;;;;;;5028756;28;20031;-61
2021/09/12 09:39:06;;;;;;;10.30;8.30;;;;;;;;;;5033743;28;20025;-62
2021/09/12 09:41:39;;;;;;;11.80;8.18;;;;;;;;;;5034344;28;20032;-61
2021/09/12 09:44:10;;;;;;;8.65;7.30;;;;;;;;;;5033923;28;20396;-61
2021/09/12 09:46:43;;;;;;;10.90;8.35;;;;;;;;;;5034273;28;20033;-61
2021/09/12 09:49:22;;;;;;;10.23;8.00;;;;;;;;;;5018711;28;20117;-62
2021/09/12 09:51:50;;;;;;;9.80;8.18;;;;;;;;;;5031975;28;20025;-61
2021/09/12 09:54:17;;;;;;;9.77;8.50;;;;;;;;;;5029990;28;20013;-62
2021/09/12 09:56:46;;;;;;;11.65;8.07;;;;;;;;;;5033740;28;20034;-62
2021/09/12 09:59:13;;;;;;;10.13;8.25;;;;;;;;;;5033969;28;20075;-62
2021/09/12 10:01:39;;;;;;;10.60;7.82;;;;;;;;;;5033947;28;20034;-62
2021/09/12 10:04:05;;;;;;;11.18;8.45;;;;;;;;;;5032928;28;20032;-61
2021/09/12 10:06:31;;;;;;;11.25;8.80;;;;;;;;;;5031635;28;20500;-61
2021/09/12 10:08:57;;;;;;;9.88;8.63;;;;;;;;;;5033310;28;20436;-62
2021/09/12 10:11:23;;;;;;;10.55;8.93;;;;;;;;;;5033786;28;20025;-62
2021/09/12 10:13:51;;;;;;;10.60;8.75;;;;;;;;;;5033900;28;20033;-62
2021/09/12 10:16:18;;;;;;;10.40;8.52;;;;;;;;;;5033902;28;20028;-62
2021/09/12 10:18:44;;;;;;;10.65;8.32;;;;;;;;;;5031436;28;20064;-62
2021/09/12 10:21:22;;;;;;;11.07;8.52;;;;;;;;;;5033236;28;20032;-61
2021/09/12 10:23:56;;;;;;;9.35;8.25;;;;;;;;;;5037647;28;20496;-62
2021/09/12 10:26:29;;;;;;;11.80;8.90;;;;;;;;;;5037839;28;20110;-62
2021/09/12 10:28:55;;;;;;;12.02;8.88;;;;;;;;;;5037486;28;20140;-61
2021/09/12 10:31:27;;;;;;;13.68;9.52;;;;;;;;;;5037249;28;20055;-62
2021/09/12 10:34:03;;;;;;;11.27;8.80;;;;;;;;;;5035613;28;20030;-61
2021/09/12 10:36:29;;;;;;;9.80;8.07;;;;;;;;;;5035646;28;20022;-62
2021/09/12 10:38:55;;;;;;;11.13;9.43;;;;;;;;;;5037491;28;20370;-62
2021/09/12 10:41:21;;;;;;;10.63;8.85;;;;;;;;;;5037333;28;20053;-61
2021/09/12 10:43:48;;;;;;;11.75;8.75;;;;;;;;;;5035460;28;20029;-62
2021/09/12 10:46:14;;;;;;;11.55;8.63;;;;;;;;;;5037579;28;20024;-61
2021/09/12 10:48:41;;;;;;;12.52;9.27;;;;;;;;;;5034787;28;20033;-62
2021/09/12 10:51:07;;;;;;;10.45;9.07;;;;;;;;;;5036507;28;20026;-61
2021/09/12 10:53:45;;;;;;;9.90;8.07;;;;;;;;;;5037155;28;20138;-62
2021/09/12 10:56:12;;;;;;;11.40;9.30;;;;;;;;;;5036796;28;20017;-62
2021/09/12 10:58:38;;;;;;;9.75;8.15;;;;;;;;;;5036800;28;20504;-61
2021/09/12 11:01:05;;;;;;;13.38;8.57;;;;;;;;;;5021019;28;20262;-62
2021/09/12 11:03:31;;;;;;;10.25;8.80;;;;;;;;;;5034685;28;20502;-62
2021/09/12 11:05:58;;;;;;;11.52;8.68;;;;;;;;;;5036573;28;20026;-62
2021/09/12 11:08:44;;;;;;;10.95;9.00;;;;;;;;;;5036852;28;20099;-62
2021/09/12 11:11:10;;;;;;;11.27;8.60;;;;;;;;;;5035500;28;20091;-62
2021/09/12 11:13:37;;;;;;;11.48;9.30;;;;;;;;;;5036390;28;20052;-62
2021/09/12 11:16:11;;;;;;;13.20;9.23;;;;;;;;;;5035955;28;20446;-61
2021/09/12 11:18:51;;;;;;;10.65;9.20;;;;;;;;;;5030660;28;20109;-62
2021/09/12 11:21:33;;;;;;;11.35;8.38;;;;;;;;;;5032851;28;20044;-62
2021/09/12 11:24:00;;;;;;;9.82;8.80;;;;;;;;;;5035135;28;20034;-62
2021/09/12 11:26:27;;;;;;;11.32;9.45;;;;;;;;;;5036379;28;20071;-62
2021/09/12 11:29:04;;;;;;;10.57;9.48;;;;;;;;;;5036232;28;20096;-62
2021/09/12 11:31:31;;;;;;;13.45;9.90;;;;;;;;;;5036666;28;20102;-62
2021/09/12 11:33:57;;;;;;;11.57;8.80;;;;;;;;;;5032983;28;20037;-62
2021/09/12 11:36:23;;;;;;;14.35;9.80;;;;;;;;;;5035622;28;20021;-62
2021/09/12 11:38:54;;;;;;;11.18;9.90;;;;;;;;;;5036224;28;20446;-62
2021/09/12 11:41:22;;;;;;;13.68;10.43;;;;;;;;;;5036140;28;20424;-62
2021/09/12 11:43:55;;;;;;;12.70;10.18;;;;;;;;;;5035858;28;20083;-61
2021/09/12 11:46:21;;;;;;;13.48;10.90;;;;;;;;;;5035796;28;20029;-62
2021/09/12 11:48:54;;;;;;;11.82;10.57;;;;;;;;;;5034204;28;20042;-62
2021/09/12 11:51:24;;;;;;;13.63;10.77;;;;;;;;;;5032287;28;20025;-62
2021/09/12 11:54:03;;;;;;;13.40;11.02;;;;;;;;;;5035873;28;20452;-62
2021/09/12 11:56:29;;;;;;;13.13;11.38;;;;;;;;;;5035951;28;20109;-62
2021/09/12 11:58:55;;;;;;;12.50;10.50;;;;;;;;;;5035454;28;20116;-62
2021/09/12 12:01:21;;;;;;;13.60;10.70;;;;;;;;;;5034321;28;20021;-62
2021/09/12 12:03:47;;;;;;;14.90;11.05;;;;;;;;;;5033514;28;20022;-62
2021/09/12 12:06:13;;;;;;;14.52;10.88;;;;;;;;;;5035757;28;20101;-62
2021/09/12 12:08:59;;;;;;;13.43;10.68;;;;;;;;;;5035076;28;20124;-62
2021/09/12 12:11:25;;;;;;;13.45;11.20;;;;;;;;;;5035622;28;20032;-62
2021/09/12 12:13:51;;;;;;;13.00;11.60;;;;;;;;;;5035387;28;20037;-62
2021/09/12 12:16:17;;;;;;;13.05;11.10;;;;;;;;;;5035576;28;20033;-62
2021/09/12 12:18:43;;;;;;;16.52;11.35;;;;;;;;;;5033613;28;20029;-61
2021/09/12 12:21:12;;;;;;;13.95;11.23;;;;;;;;;;5034259;28;20087;-62
2021/09/12 12:23:41;;;;;;;11.77;10.45;;;;;;;;;;5035400;28;20026;-62
2021/09/12 12:26:17;;;;;;;13.90;10.63;;;;;;;;;;5035502;28;20022;-62
2021/09/12 12:28:43;;;;;;;13.43;10.98;;;;;;;;;;5034498;28;20110;-62
2021/09/12 12:31:14;;;;;;;14.60;10.75;;;;;;;;;;5033906;28;20036;-62
2021/09/12 12:33:40;;;;;;;14.15;10.80;;;;;;;;;;5031664;28;20037;-62
2021/09/12 12:36:10;;;;;;;12.77;10.73;;;;;;;;;;5034842;28;20025;-62
2021/09/12 12:38:37;;;;;;;12.68;10.70;;;;;;;;;;5034863;28;20030;-61
2021/09/12 12:41:04;;;;;;;16.60;11.50;;;;;;;;;;5033742;28;20029;-62
2021/09/12 12:43:30;;;;;;;14.95;10.95;;;;;;;;;;5034837;28;20065;-62
2021/09/12 12:45:56;;;;;;;14.70;11.30;;;;;;;;;;5033326;28;20037;-62
2021/09/12 12:48:22;;;;;;;16.23;11.38;;;;;;;;;;5034008;28;20032;-62
2021/09/12 12:50:53;;;;;;;15.80;11.73;;;;;;;;;;5034116;28;20489;-62
2021/09/12 12:53:36;;;;;;;16.90;11.77;;;;;;;;;;5035055;28;20021;-62
2021/09/12 12:56:02;;;;;;;14.50;11.43;;;;;;;;;;5034896;28;20108;-62
2021/09/12 12:58:29;;;;;;;14.65;11.73;;;;;;;;;;5034832;28;20085;-62
2021/09/12 13:00:56;;;;;;;15.68;11.35;;;;;;;;;;5032493;28;20096;-62
2021/09/12 13:03:22;;;;;;;15.63;11.93;;;;;;;;;;5033902;28;20029;-62
2021/09/12 13:05:49;;;;;;;15.85;10.65;;;;;;;;;;5034445;28;20037;-61
2021/09/12 13:08:16;;;;;;;15.93;12.40;;;;;;;;;;5033254;28;20504;-62
2021/09/12 13:10:42;;;;;;;;;;;;;;;;;;5035183;28;20037;-62
2021/09/12 13:13:09;;;;;;;13.95;12.05;;;;;;;;;;5034804;28;19940;-62
2021/09/12 13:15:36;;;;;;;13.70;11.82;;;;;;;;;;5032115;28;20038;-62
2021/09/12 13:18:02;;;;;;;12.95;11.32;;;;;;;;;;5034117;28;20033;-62
2021/09/12 13:20:28;;;;;;;14.00;11.95;;;;;;;;;;5033112;28;20025;-62
2021/09/12 13:22:54;;;;;;;14.73;12.40;;;;;;;;;;5034187;28;20626;-62
2021/09/12 13:25:20;;;;;;;11.65;10.40;;;;;;;;;;5034591;28;20029;-62
2021/09/12 13:27:46;;;;;;;14.02;11.15;;;;;;;;;;5031876;28;20046;-62
2021/09/12 13:30:12;;;;;;;13.13;9.73;;;;;;;;;;5034127;28;20037;-62
2021/09/12 13:32:39;;;;;;;11.32;9.32;;;;;;;;;;5034057;28;20120;-62
2021/09/12 13:35:05;;;;;;;13.50;10.57;;;;;;;;;;5033903;28;20101;-62
2021/09/12 13:37:31;;;;;;;12.43;9.98;;;;;;;;;;5034369;28;20032;-61
2021/09/12 13:39:57;;;;;;;13.73;10.05;;;;;;;;;;5032943;28;20033;-61
2021/09/12 13:42:23;;;;;;;11.63;9.82;;;;;;;;;;5032841;28;20109;-61
2021/09/12 13:44:49;;;;;;;12.57;10.18;;;;;;;;;;5033959;28;20462;-61
2021/09/12 13:47:15;;;;;;;11.48;9.57;;;;;;;;;;5033896;28;20017;-61
2021/09/12 13:49:41;;;;;;;12.73;10.32;;;;;;;;;;5033643;28;20726;-61
2021/09/12 13:52:07;;;;;;;13.18;9.73;;;;;;;;;;5034174;28;20108;-61
2021/09/12 13:54:33;;;;;;;12.30;9.80;;;;;;;;;;5027709;28;20030;-61
2021/09/12 13:57:00;;;;;;;12.18;9.43;;;;;;;;;;5036720;28;20481;-61
2021/09/12 13:59:26;;;;;;;;;;;;;;;;;;5039121;28;20100;-61
2021/09/12 14:01:52;;;;;;;13.43;9.80;;;;;;;;;;5040455;28;19940;-61
2021/09/12 14:04:18;;;;;;;13.38;9.07;;;;;;;;;;5040253;28;20416;-61
2021/09/12 14:06:44;;;;;;;13.50;9.52;;;;;;;;;;5038585;28;20034;-62
2021/09/12 14:09:10;;;;;;;13.88;9.88;;;;;;;;;;5040008;28;20112;-62
2021/09/12 14:11:36;;;;;;;11.80;9.35;;;;;;;;;;5040528;28;20207;-62
2021/09/12 14:14:02;;;;;;;12.18;8.75;;;;;;;;;;5040223;28;20092;-62
2021/09/12 14:16:29;;;;;;;10.98;9.15;;;;;;;;;;5039893;28;20540;-62
2021/09/12 14:18:55;;;;;;;11.82;9.30;;;;;;;;;;5038725;28;20065;-62
2021/09/12 14:21:21;;;;;;;14.93;9.52;;;;;;;;;;5039917;28;20068;-62
2021/09/12 14:23:48;;;;;;;12.95;9.68;;;;;;;;;;5039533;28;20227;-62